createdAt,value
2023-04-13T00:02:02.130Z,10.88
2023-04-13T00:04:31.216Z,10.99
2023-04-13T00:07:04.297Z,10.92
2023-04-13T00:09:31.100Z,11.08
2023-04-13T00:12:36.560Z,11.12
2023-04-13T00:15:25.784Z,11.11
2023-04-13T00:17:54.025Z,11.02
2023-04-13T00:20:20.730Z,11.15
2023-04-13T00:22:48.902Z,11.15
2023-04-13T00:25:16.694Z,11.14
2023-04-13T00:27:44.166Z,11.23
2023-04-13T00:30:30.315Z,11.27
2023-04-13T00:32:56.939Z,11.23
2023-04-13T00:35:48.566Z,11.08
2023-04-13T00:38:15.225Z,10.90
2023-04-13T00:41:26.008Z,11.24
2023-04-13T00:44:15.936Z,11.06
2023-04-13T00:46:42.952Z,11.18
2023-04-13T00:49:09.615Z,11.11
2023-04-13T00:51:36.223Z,10.95
2023-04-13T00:54:02.823Z,11.07
2023-04-13T00:56:29.519Z,11.31
2023-04-13T01:01:31.342Z,11.52
2023-04-13T01:03:58.394Z,11.40
2023-04-13T01:06:31.939Z,11.58
2023-04-13T01:09:54.466Z,11.58
2023-04-13T01:13:31.894Z,11.63
2023-04-13T01:16:12.001Z,11.60
2023-04-13T01:18:41.792Z,11.59
2023-04-13T01:21:13.211Z,11.58
2023-04-13T01:24:01.512Z,11.59
2023-04-13T01:26:53.325Z,11.62
2023-04-13T01:31:56.464Z,11.74
2023-04-13T01:34:25.212Z,11.69
2023-04-13T01:36:53.056Z,11.46
2023-04-13T01:43:19.534Z,11.67
2023-04-13T01:45:55.659Z,11.58
2023-04-13T01:48:48.763Z,11.62
2023-04-13T01:51:24.942Z,11.67
2023-04-13T01:54:12.844Z,11.63
2023-04-13T01:56:40.727Z,11.69
2023-04-13T02:01:43.278Z,11.65
2023-04-13T02:04:20.808Z,11.75
2023-04-13T02:06:48.328Z,11.70
2023-04-13T02:09:48.911Z,11.77
2023-04-13T02:12:25.750Z,11.73
2023-04-13T02:14:52.280Z,11.75
2023-04-13T02:17:18.814Z,11.72
2023-04-13T02:19:46.974Z,11.76
2023-04-13T02:22:13.518Z,11.82
2023-04-13T02:24:40.494Z,11.82
2023-04-13T02:29:57.420Z,11.83
2023-04-13T02:32:24.538Z,11.89
2023-04-13T02:37:26.552Z,11.86
2023-04-13T02:43:35.707Z,11.91
2023-04-13T02:46:02.445Z,11.94
2023-04-13T02:48:29.299Z,11.92
2023-04-13T02:50:55.966Z,11.95
2023-04-13T02:53:23.490Z,11.95
2023-04-13T02:55:54.064Z,11.85
2023-04-13T02:58:41.789Z,11.76
2023-04-13T03:01:08.424Z,11.93
2023-04-13T03:03:35.102Z,11.96
2023-04-13T03:06:01.904Z,11.90
2023-04-13T03:09:16.219Z,11.82
2023-04-13T03:12:11.114Z,11.78
2023-04-13T03:14:37.649Z,11.69
2023-04-13T03:17:04.845Z,11.74
2023-04-13T03:19:31.983Z,11.45
2023-04-13T03:21:58.826Z,11.59
2023-04-13T03:24:27.535Z,11.76
2023-04-13T03:29:42.979Z,11.43
2023-04-13T03:32:09.585Z,11.72
2023-04-13T03:34:36.250Z,11.79
2023-04-13T03:43:25.515Z,11.83
2023-04-13T03:45:52.443Z,11.88
2023-04-13T03:48:19.565Z,11.87
2023-04-13T03:50:46.230Z,11.84
2023-04-13T03:53:12.786Z,11.81
2023-04-13T03:55:39.445Z,11.86
2023-04-13T04:00:54.999Z,11.84
2023-04-13T04:03:22.646Z,11.78
2023-04-13T04:05:49.425Z,11.82
2023-04-13T04:08:49.692Z,11.87
2023-04-13T04:11:41.628Z,11.88
2023-04-13T04:14:08.172Z,11.60
2023-04-13T04:16:34.705Z,11.71
2023-04-13T04:19:01.660Z,11.55
2023-04-13T04:21:34.417Z,11.66
2023-04-13T04:24:06.204Z,11.70
2023-04-13T04:26:41.621Z,11.65
2023-04-13T04:29:08.920Z,11.29
2023-04-13T04:31:37.525Z,11.50
2023-04-13T04:34:04.523Z,11.13
2023-04-13T04:37:20.803Z,11.08
2023-04-13T04:40:22.700Z,10.77
2023-04-13T04:42:49.342Z,11.21
2023-04-13T04:45:16.728Z,11.45
2023-04-13T04:47:43.839Z,11.40
2023-04-13T04:50:12.479Z,11.43
2023-04-13T04:52:40.226Z,11.36
2023-04-13T04:55:07.886Z,11.58
2023-04-13T04:57:34.598Z,11.24
2023-04-13T05:00:16.863Z,11.09
2023-04-13T05:02:44.437Z,11.51
2023-04-13T05:05:11.944Z,11.21
2023-04-13T05:07:38.562Z,11.49
2023-04-13T05:10:07.376Z,11.19
2023-04-13T05:12:35.330Z,11.52
2023-04-13T05:15:04.236Z,11.72
2023-04-13T05:17:30.990Z,11.48
2023-04-13T05:19:57.580Z,11.58
2023-04-13T05:22:24.153Z,11.40
2023-04-13T05:24:50.842Z,11.68
2023-04-13T05:27:17.575Z,11.59
2023-04-13T05:29:46.947Z,11.74
2023-04-13T05:32:14.206Z,12.11
2023-04-13T05:34:40.816Z,12.35
2023-04-13T05:37:07.682Z,12.54
2023-04-13T05:39:34.387Z,12.63
2023-04-13T05:42:01.850Z,12.63
2023-04-13T05:44:28.423Z,12.78
2023-04-13T05:46:55.010Z,11.97
2023-04-13T05:49:21.644Z,12.53
2023-04-13T05:51:48.388Z,13.00
2023-04-13T05:54:15.012Z,11.79
2023-04-13T05:56:41.739Z,12.22
2023-04-13T05:59:08.791Z,12.84
2023-04-13T06:01:36.508Z,13.04
2023-04-13T06:04:03.701Z,13.04
2023-04-13T06:06:30.653Z,12.99
2023-04-13T06:08:57.569Z,13.11
2023-04-13T06:11:25.903Z,13.29
2023-04-13T06:13:52.477Z,13.32
2023-04-13T06:16:19.129Z,13.24
2023-04-13T06:18:45.931Z,13.39
2023-04-13T06:21:12.574Z,13.36
2023-04-13T06:23:39.209Z,13.63
2023-04-13T06:26:06.897Z,13.99
2023-04-13T06:28:33.649Z,14.42
2023-04-13T06:31:00.484Z,14.88
2023-04-13T06:33:27.867Z,14.84
2023-04-13T06:35:54.481Z,14.75
2023-04-13T06:38:21.120Z,14.60
2023-04-13T06:41:09.664Z,14.61
2023-04-13T06:43:37.058Z,14.36
2023-04-13T06:46:04.429Z,14.30
2023-04-13T06:48:31.508Z,14.54
2023-04-13T06:54:59.948Z,14.20
2023-04-13T06:57:26.699Z,14.43
2023-04-13T06:59:53.293Z,14.44
2023-04-13T07:02:20.243Z,14.26
2023-04-13T07:04:47.124Z,14.44
2023-04-13T07:07:14.206Z,14.60
2023-04-13T07:09:41.558Z,14.58
2023-04-13T07:12:08.247Z,14.49
2023-04-13T07:14:39.204Z,14.44
2023-04-13T07:17:06.150Z,14.58
2023-04-13T07:19:34.412Z,14.40
2023-04-13T07:22:02.256Z,14.84
2023-04-13T07:24:30.111Z,14.88
2023-04-13T07:26:57.685Z,15.14
2023-04-13T07:29:27.320Z,15.30
2023-04-13T07:32:00.735Z,15.44
2023-04-13T07:34:27.662Z,15.62
2023-04-13T07:36:54.543Z,15.47
2023-04-13T07:39:21.412Z,15.44
2023-04-13T07:41:48.560Z,15.70
2023-04-13T07:44:15.410Z,15.64
2023-04-13T07:46:42.118Z,15.77
2023-04-13T07:49:08.757Z,16.04
2023-04-13T07:51:35.756Z,16.32
2023-04-13T07:54:03.038Z,16.12
2023-04-13T07:56:51.548Z,16.52
2023-04-13T07:59:18.108Z,16.33
2023-04-13T08:01:44.694Z,16.57
2023-04-13T08:04:11.891Z,16.69
2023-04-13T08:07:11.853Z,16.41
2023-04-13T08:10:00.780Z,15.98
2023-04-13T08:12:27.347Z,15.82
2023-04-13T08:14:54.300Z,15.85
2023-04-13T08:17:21.941Z,16.03
2023-04-13T08:19:48.762Z,16.40
2023-04-13T08:22:15.484Z,16.50
2023-04-13T08:24:42.071Z,16.56
2023-04-13T08:27:08.691Z,16.69
2023-04-13T08:29:35.306Z,16.31
2023-04-13T08:32:02.064Z,16.10
2023-04-13T08:34:28.720Z,16.36
2023-04-13T08:36:55.279Z,16.74
2023-04-13T08:39:22.194Z,16.56
2023-04-13T08:41:49.006Z,16.51
2023-04-13T08:44:15.844Z,16.77
2023-04-13T08:46:45.433Z,16.89
2023-04-13T08:49:13.115Z,16.73
2023-04-13T08:51:43.556Z,16.40
2023-04-13T08:54:12.841Z,16.33
2023-04-13T08:56:46.104Z,16.12
2023-04-13T08:59:16.142Z,16.38
2023-04-13T09:01:46.649Z,16.75
2023-04-13T09:04:18.193Z,17.33
2023-04-13T09:06:47.931Z,17.50
2023-04-13T09:09:15.012Z,18.94
2023-04-13T09:11:43.184Z,19.04
2023-04-13T09:14:10.483Z,19.24
2023-04-13T09:16:41.977Z,19.26
2023-04-13T09:19:09.545Z,18.94
2023-04-13T09:21:41.402Z,18.43
2023-04-13T09:24:08.521Z,18.36
2023-04-13T09:26:42.602Z,18.05
2023-04-13T09:29:21.843Z,18.33
2023-04-13T09:31:48.622Z,18.69
2023-04-13T09:34:27.109Z,18.63
2023-04-13T09:36:56.616Z,18.05
2023-04-13T09:39:28.805Z,18.72
2023-04-13T09:41:56.213Z,18.57
2023-04-13T09:44:28.542Z,18.23
2023-04-13T09:46:59.055Z,18.60
2023-04-13T09:49:26.286Z,18.87
2023-04-13T09:51:56.174Z,18.18
2023-04-13T09:54:22.890Z,18.74
2023-04-13T09:56:55.746Z,19.09
2023-04-13T09:59:25.646Z,19.04
2023-04-13T10:01:52.647Z,19.44
2023-04-13T10:04:19.524Z,18.77
2023-04-13T10:06:47.876Z,18.31
2023-04-13T10:09:29.445Z,18.52
2023-04-13T10:11:57.045Z,18.91
2023-04-13T10:14:28.356Z,18.54
2023-04-13T10:17:16.898Z,18.52
2023-04-13T10:19:49.719Z,18.54
2023-04-13T10:22:16.909Z,18.47
2023-04-13T10:25:07.050Z,18.27
2023-04-13T10:27:36.419Z,18.15
2023-04-13T10:30:23.824Z,17.68
2023-04-13T10:33:02.098Z,18.09
2023-04-13T10:36:35.461Z,18.07
2023-04-13T10:39:38.961Z,18.53
2023-04-13T10:42:10.452Z,18.46
2023-04-13T10:44:47.023Z,18.34
2023-04-13T10:47:15.256Z,18.50
2023-04-13T10:49:46.710Z,18.77
2023-04-13T10:52:13.802Z,18.91
2023-04-13T10:54:56.470Z,19.04
2023-04-13T10:57:23.059Z,18.93
2023-04-13T10:59:59.416Z,19.05
2023-04-13T11:02:31.944Z,19.12
2023-04-13T11:05:49.829Z,19.12
2023-04-13T11:09:16.105Z,19.20
2023-04-13T11:11:43.521Z,19.65
2023-04-13T11:14:10.104Z,20.02
2023-04-13T11:16:46.821Z,20.28
2023-04-13T11:19:16.549Z,19.43
2023-04-13T11:21:45.031Z,18.99
2023-04-13T11:24:11.980Z,19.39
2023-04-13T11:26:38.834Z,18.83
2023-04-13T11:29:09.170Z,19.22
2023-04-13T11:31:40.886Z,19.01
2023-04-13T11:34:09.742Z,18.95
2023-04-13T11:36:41.727Z,19.34
2023-04-13T11:39:10.882Z,19.67
2023-04-13T11:41:41.835Z,19.19
2023-04-13T11:44:08.533Z,19.33
2023-04-13T11:46:35.168Z,19.50
2023-04-13T11:49:02.398Z,19.24
2023-04-13T11:51:29.470Z,19.52
2023-04-13T11:56:58.318Z,19.97
2023-04-13T11:59:26.411Z,20.22
2023-04-13T12:02:01.578Z,20.31
2023-04-13T12:05:17.246Z,20.28
2023-04-13T12:08:40.612Z,20.63
2023-04-13T12:11:41.397Z,20.86
2023-04-13T12:14:46.036Z,20.71
2023-04-13T12:17:37.484Z,20.46
2023-04-13T12:20:03.326Z,20.47
2023-04-13T12:22:55.146Z,20.69
2023-04-13T12:28:00.243Z,20.61
2023-04-13T12:30:27.598Z,20.46
2023-04-13T12:32:55.873Z,20.51
2023-04-13T12:38:48.190Z,20.33
2023-04-13T12:41:14.781Z,20.44
2023-04-13T12:43:41.340Z,20.34
2023-04-13T12:46:07.910Z,20.77
2023-04-13T12:48:34.568Z,20.82
2023-04-13T12:51:01.180Z,20.93
2023-04-13T12:53:27.772Z,20.51
2023-04-13T12:55:54.596Z,19.61
2023-04-13T12:58:21.342Z,19.95
2023-04-13T13:00:48.498Z,19.80
2023-04-13T13:03:15.660Z,20.16
2023-04-13T13:05:42.895Z,20.21
2023-04-13T13:08:09.552Z,20.32
2023-04-13T13:10:39.959Z,20.20
2023-04-13T13:13:06.571Z,20.45
2023-04-13T13:15:34.165Z,20.67
2023-04-13T13:18:06.664Z,20.49
2023-04-13T13:20:33.377Z,20.30
2023-04-13T13:22:59.927Z,20.13
2023-04-13T13:25:26.991Z,20.04
2023-04-13T13:28:13.074Z,20.25
2023-04-13T13:30:40.667Z,20.41
2023-04-13T13:33:07.411Z,20.67
2023-04-13T13:35:34.782Z,20.72
2023-04-13T13:38:02.067Z,20.80
2023-04-13T13:40:28.925Z,20.84
2023-04-13T13:42:55.632Z,20.54
2023-04-13T13:45:22.385Z,20.52
2023-04-13T13:47:53.513Z,20.38
2023-04-13T13:50:23.824Z,20.60
2023-04-13T13:53:03.014Z,20.67
2023-04-13T13:55:31.038Z,20.71
2023-04-13T13:58:16.017Z,20.80
2023-04-13T14:00:42.611Z,20.74
2023-04-13T14:03:09.375Z,20.50
2023-04-13T14:05:37.445Z,20.43
2023-04-13T14:08:04.190Z,20.04
2023-04-13T14:10:30.823Z,19.67
2023-04-13T14:12:59.297Z,19.81
2023-04-13T14:15:25.951Z,19.97
2023-04-13T14:18:08.422Z,20.04
2023-04-13T14:20:40.695Z,19.93
2023-04-13T14:23:09.299Z,19.91
2023-04-13T14:25:36.725Z,19.95
2023-04-13T14:28:03.440Z,19.95
2023-04-13T14:30:30.313Z,19.92
2023-04-13T14:32:56.995Z,19.91
2023-04-13T14:35:24.142Z,19.96
2023-04-13T14:37:50.786Z,19.97
2023-04-13T14:40:21.687Z,19.85
2023-04-13T14:42:50.881Z,19.88
2023-04-13T14:45:17.705Z,20.02
2023-04-13T14:47:44.576Z,20.07
2023-04-13T14:50:11.886Z,20.06
2023-04-13T14:52:38.508Z,19.97
2023-04-13T14:55:05.634Z,19.82
2023-04-13T14:57:32.519Z,19.84
2023-04-13T14:59:59.170Z,19.75
2023-04-13T15:02:28.197Z,19.74
2023-04-13T15:04:55.933Z,19.52
2023-04-13T15:07:29.966Z,19.54
2023-04-13T15:09:58.072Z,19.49
2023-04-13T15:12:24.728Z,18.88
2023-04-13T15:14:51.305Z,18.69
2023-04-13T15:17:17.947Z,18.74
2023-04-13T15:19:44.556Z,18.78
2023-04-13T15:22:11.132Z,18.74
2023-04-13T15:24:37.744Z,18.57
2023-04-13T15:27:04.447Z,18.26
2023-04-13T15:29:31.285Z,18.73
2023-04-13T15:31:58.480Z,18.98
2023-04-13T15:34:25.187Z,19.13
2023-04-13T15:36:51.779Z,19.12
2023-04-13T15:39:18.364Z,18.99
2023-04-13T15:41:44.955Z,19.00
2023-04-13T15:44:11.512Z,18.97
2023-04-13T15:46:38.489Z,18.72
2023-04-13T15:49:05.109Z,18.69
2023-04-13T15:51:32.281Z,18.76
2023-04-13T15:53:58.922Z,18.53
2023-04-13T15:56:25.945Z,18.29
2023-04-13T15:58:52.543Z,18.43
2023-04-13T16:01:19.128Z,18.32
2023-04-13T16:03:49.366Z,18.15
2023-04-13T16:06:16.313Z,17.94
2023-04-13T16:08:43.191Z,17.81
2023-04-13T16:11:31.771Z,17.73
2023-04-13T16:14:07.160Z,17.88
2023-04-13T16:27:08.742Z,17.71
2023-04-13T16:29:44.620Z,17.32
2023-04-13T16:32:15.783Z,17.02
2023-04-13T16:34:42.905Z,17.03
2023-04-13T16:37:09.523Z,17.07
2023-04-13T16:39:36.133Z,16.89
2023-04-13T16:42:02.721Z,16.69
2023-04-13T16:44:29.353Z,16.50
2023-04-13T16:46:56.264Z,16.76
2023-04-13T16:49:22.890Z,16.91
2023-04-13T16:51:49.552Z,16.98
2023-04-13T16:54:17.884Z,16.87
2023-04-13T16:56:44.776Z,16.74
2023-04-13T16:59:11.592Z,16.66
2023-04-13T17:01:39.977Z,16.82
2023-04-13T17:04:06.775Z,16.76
2023-04-13T17:06:37.478Z,16.67
2023-04-13T17:09:05.358Z,16.55
2023-04-13T17:11:32.097Z,16.57
2023-04-13T17:13:58.723Z,16.61
2023-04-13T17:16:29.390Z,16.47
2023-04-13T17:18:56.832Z,16.52
2023-04-13T17:21:23.528Z,16.29
2023-04-13T17:23:50.106Z,16.14
2023-04-13T17:26:16.721Z,16.11
2023-04-13T17:28:43.298Z,16.11
2023-04-13T17:31:10.533Z,16.06
2023-04-13T17:33:37.155Z,15.88
2023-04-13T17:36:03.915Z,16.09
2023-04-13T17:38:30.557Z,15.94
2023-04-13T17:40:57.151Z,15.89
2023-04-13T17:43:23.710Z,16.06
2023-04-13T17:45:50.499Z,16.12
2023-04-13T17:48:17.157Z,16.08
2023-04-13T17:50:43.984Z,16.13
2023-04-13T17:53:11.317Z,15.99
2023-04-13T17:55:38.558Z,15.90
2023-04-13T17:58:05.834Z,16.01
2023-04-13T18:00:32.491Z,15.75
2023-04-13T18:02:59.199Z,15.71
2023-04-13T18:05:26.762Z,15.83
2023-04-13T18:07:53.339Z,15.93
2023-04-13T18:10:19.948Z,15.75
2023-04-13T18:12:46.815Z,15.90
2023-04-13T18:15:13.513Z,15.77
2023-04-13T18:17:40.925Z,15.81
2023-04-13T18:20:09.170Z,15.87
2023-04-13T18:22:36.119Z,15.69
2023-04-13T18:25:02.734Z,15.63
2023-04-13T18:27:29.381Z,15.56
2023-04-13T18:29:56.799Z,15.59
2023-04-13T18:32:23.603Z,15.54
2023-04-13T18:34:50.277Z,15.49
2023-04-13T18:37:17.124Z,15.54
2023-04-13T18:43:33.869Z,15.27
2023-04-13T18:46:01.332Z,15.08
2023-04-13T18:48:27.985Z,15.10
2023-04-13T18:50:54.578Z,15.19
2023-04-13T18:53:21.225Z,15.12
2023-04-13T18:55:52.341Z,15.28
2023-04-13T19:00:55.502Z,14.98
2023-04-13T19:03:22.727Z,14.76
2023-04-13T19:05:49.530Z,14.84
2023-04-13T19:08:16.101Z,14.76
2023-04-13T19:10:42.754Z,14.63
2023-04-13T19:13:09.411Z,14.39
2023-04-13T19:19:26.409Z,14.27
2023-04-13T19:21:54.238Z,13.90
2023-04-13T19:24:22.038Z,13.91
2023-04-13T19:26:49.246Z,14.14
2023-04-13T19:29:16.483Z,14.08
2023-04-13T19:31:45.129Z,14.19
2023-04-13T19:36:47.007Z,14.19
2023-04-13T19:39:13.647Z,14.37
2023-04-13T19:41:41.378Z,13.90
2023-04-13T19:48:05.750Z,13.39
2023-04-13T19:50:32.512Z,13.27
2023-04-13T19:52:59.180Z,13.14
2023-04-13T19:55:27.138Z,12.90
2023-04-13T19:57:54.409Z,12.25
2023-04-13T20:00:22.418Z,12.45
2023-04-13T20:02:50.957Z,12.40
2023-04-13T20:05:19.567Z,12.03
2023-04-13T20:07:46.302Z,12.13
2023-04-13T20:10:13.024Z,12.39
2023-04-13T20:12:39.749Z,12.33
2023-04-13T20:15:07.361Z,12.37
2023-04-13T20:18:13.018Z,12.09
2023-04-13T20:20:42.585Z,12.04
2023-04-13T20:23:09.633Z,12.40
2023-04-13T20:25:41.854Z,12.28
2023-04-13T20:35:06.942Z,12.31
2023-04-13T20:37:33.579Z,12.15
2023-04-13T20:40:00.751Z,12.78
2023-04-13T20:42:27.365Z,12.57
2023-04-13T20:44:57.648Z,12.53
2023-04-13T20:50:06.872Z,13.11
2023-04-13T20:52:33.790Z,13.49
2023-04-13T20:55:00.478Z,12.98
2023-04-13T21:01:57.971Z,12.58
2023-04-13T21:20:50.454Z,11.83
2023-04-13T21:23:17.302Z,11.45
2023-04-13T21:25:44.525Z,11.55
2023-04-13T21:28:55.399Z,11.73
2023-04-13T21:31:53.427Z,11.73
2023-04-13T21:34:20.194Z,11.80
2023-04-13T21:39:16.366Z,11.80
2023-04-13T21:41:42.944Z,11.54
2023-04-13T21:44:22.663Z,11.72
2023-04-13T21:47:24.233Z,11.83
2023-04-13T21:49:50.853Z,12.09
2023-04-13T21:52:17.438Z,11.96
2023-04-13T21:54:44.080Z,11.94
2023-04-13T22:01:12.919Z,11.95
2023-04-13T22:03:42.472Z,11.63
2023-04-13T22:06:10.947Z,11.78
2023-04-13T22:08:37.886Z,11.39
2023-04-13T22:11:04.743Z,11.36
2023-04-13T22:13:50.253Z,11.16
2023-04-13T22:16:38.337Z,11.14
2023-04-13T22:19:05.026Z,11.33
2023-04-13T22:21:34.725Z,11.34
2023-04-13T22:24:01.399Z,11.26
2023-04-13T22:27:18.370Z,11.22
2023-04-13T22:30:41.265Z,11.11
2023-04-13T22:33:20.973Z,11.12
2023-04-13T22:35:50.971Z,10.96
2023-04-13T22:38:18.688Z,11.09
2023-04-13T22:40:45.880Z,11.56
2023-04-13T22:43:13.194Z,11.47
2023-04-13T22:45:39.839Z,11.02
2023-04-13T22:48:30.644Z,11.36
2023-04-13T22:51:00.866Z,11.17
2023-04-13T22:53:28.070Z,11.46
2023-04-13T23:00:27.090Z,11.05
2023-04-13T23:02:56.021Z,11.17
2023-04-13T23:05:24.062Z,11.40
